Time;durP1;ratioP1;P1;durP2;ratioP2;P2;SDS_P1;SDS_P2;PMS_P1;PMS_P2;Temp;Humidity;BMP_temperature;BMP_pressure;BME280_temperature;BME280_humidity;BME280_pressure;Samples;Min_cycle;Max_cycle;Signal;HPM_P1;HPM_P2
2021/12/16 00:09:10;;;;;;;72.93;34.60;;;9.30;99.90;;;;;;5067546;28;20156;-82
2021/12/16 00:20:14;;;;;;;57.60;26.50;;;9.30;99.90;;;;;;5066027;28;20167;-83
2021/12/16 00:33:44;;;;;;;61.33;30.15;;;9.20;99.90;;;;;;5065528;28;20117;-83
2021/12/16 00:36:02;;;;;;;63.88;31.60;;;9.30;99.90;;;;;;5062070;28;20053;-83
2021/12/16 00:38:27;;;;;;;58.67;30.58;;;9.30;99.90;;;;;;5045433;28;20111;-83
2021/12/16 00:40:55;;;;;;;60.67;31.98;;;9.20;99.90;;;;;;5046235;28;20100;-83
2021/12/16 00:43:38;;;;;;;67.43;34.95;;;9.30;99.90;;;;;;5046249;28;20036;-83
2021/12/16 00:49:06;;;;;;;68.28;34.25;;;9.20;99.90;;;;;;5066684;28;20451;-83
2021/12/16 00:54:16;;;;;;;72.45;35.00;;;9.20;99.90;;;;;;5065874;28;20047;-83
2021/12/16 00:56:52;;;;;;;70.60;36.25;;;9.20;99.90;;;;;;5065617;28;20069;-83
2021/12/16 00:59:20;;;;;;;66.60;33.78;;;9.20;99.90;;;;;;5045187;28;20032;-83
2021/12/16 01:02:14;;;;;;;64.50;33.58;;;9.10;99.90;;;;;;5032863;28;20055;-83
2021/12/16 01:41:50;;;;;;;62.65;31.38;;;9.10;99.90;;;;;;5045104;28;20093;-83
2021/12/16 01:47:26;;;;;;;77.15;35.75;;;9.00;99.90;;;;;;5045239;28;20041;-83
2021/12/16 01:50:00;;;;;;;70.65;32.85;;;9.00;99.90;;;;;;5047634;28;20496;-82
2021/12/16 01:55:09;;;;;;;67.25;31.65;;;9.00;99.90;;;;;;5060038;28;20052;-84
2021/12/16 01:57:41;;;;;;;75.60;35.47;;;9.00;99.90;;;;;;5045460;28;20112;-83
2021/12/16 02:00:52;;;;;;;67.78;30.77;;;9.00;99.90;;;;;;5047829;28;20059;-83
2021/12/16 02:03:25;;;;;;;59.58;27.77;;;9.00;99.90;;;;;;5044526;28;20036;-82
2021/12/16 02:05:59;;;;;;;63.85;29.45;;;9.00;99.90;;;;;;5065735;28;20033;-83
2021/12/16 02:08:28;;;;;;;67.50;27.65;;;9.00;99.90;;;;;;5064195;28;20029;-83
2021/12/16 02:11:16;;;;;;;65.05;28.90;;;9.00;99.90;;;;;;5048067;28;20385;-83
2021/12/16 02:27:17;;;;;;;62.55;30.02;;;9.00;99.90;;;;;;5044524;28;20034;-83
2021/12/16 02:27:36;;;;;;;61.25;27.98;;;8.90;99.90;;;;;;5064323;28;20029;-82
2021/12/16 02:32:54;;;;;;;65.45;29.45;;;9.00;99.90;;;;;;5068680;28;20033;-83
2021/12/16 02:37:51;;;;;;;67.95;30.27;;;8.90;99.90;;;;;;5047143;28;20134;-82
2021/12/16 02:40:18;;;;;;;67.88;31.30;;;8.90;99.90;;;;;;5047477;28;20477;-83
2021/12/16 02:50:46;;;;;;;67.25;32.90;;;8.90;99.90;;;;;;5069406;28;20025;-82
2021/12/16 02:53:12;;;;;;;70.60;33.60;;;8.90;99.90;;;;;;5051202;28;20052;-83
2021/12/16 02:55:37;;;;;;;61.72;30.83;;;8.90;99.90;;;;;;5051241;28;20100;-83
2021/12/16 02:58:03;;;;;;;57.67;30.45;;;8.90;99.90;;;;;;5047345;28;20124;-82
2021/12/16 03:00:33;;;;;;;58.17;28.35;;;8.90;99.90;;;;;;5047692;28;20029;-83
2021/12/16 03:02:59;;;;;;;55.17;28.25;;;8.90;99.90;;;;;;5045205;28;20017;-83
2021/12/16 03:05:25;;;;;;;51.15;25.10;;;8.90;99.90;;;;;;5067783;28;20037;-83
2021/12/16 03:07:52;;;;;;;53.15;27.23;;;8.80;99.90;;;;;;5050681;28;20083;-84
2021/12/16 03:13:07;;;;;;;52.45;27.48;;;8.90;99.90;;;;;;5067096;28;20033;-83
2021/12/16 03:15:55;;;;;;;52.45;26.33;;;8.80;99.90;;;;;;5051178;28;20485;-83
2021/12/16 03:18:37;;;;;;;73.00;33.17;;;8.80;99.90;;;;;;5047311;28;20049;-83
2021/12/16 03:21:30;;;;;;;64.63;31.27;;;8.80;99.90;;;;;;5030913;28;20029;-83
2021/12/16 03:32:15;;;;;;;56.35;26.08;;;8.70;99.90;;;;;;5067424;28;20044;-83
2021/12/16 03:34:59;;;;;;;62.05;28.60;;;8.80;99.90;;;;;;5063857;28;20037;-83
2021/12/16 03:37:27;;;;;;;75.32;32.92;;;8.80;99.90;;;;;;5030855;28;20033;-83
2021/12/16 03:40:05;;;;;;;66.85;28.85;;;8.80;99.90;;;;;;5083466;28;20029;-83
2021/12/16 03:42:33;;;;;;;63.78;28.98;;;8.70;99.90;;;;;;5066666;28;20037;-83
2021/12/16 03:45:08;;;;;;;65.72;30.67;;;8.70;99.90;;;;;;5050487;28;20475;-83
2021/12/16 03:47:46;;;;;;;68.38;28.05;;;8.70;99.90;;;;;;5049959;28;20067;-83
2021/12/16 03:50:17;;;;;;;66.72;30.13;;;8.80;99.90;;;;;;5050633;28;20035;-83
2021/12/16 03:52:44;;;;;;;69.35;30.55;;;8.70;99.90;;;;;;5046612;28;20037;-83
2021/12/16 03:55:11;;;;;;;78.43;34.10;;;8.70;99.90;;;;;;5046592;28;20146;-83
2021/12/16 03:57:38;;;;;;;69.55;30.48;;;8.70;99.90;;;;;;5063303;28;20037;-83
2021/12/16 04:00:12;;;;;;;67.97;30.30;;;8.70;99.90;;;;;;5050032;28;20033;-83
2021/12/16 04:02:52;;;;;;;77.20;32.70;;;8.70;99.90;;;;;;5051433;28;20040;-82
2021/12/16 04:05:25;;;;;;;70.65;31.13;;;8.70;99.90;;;;;;5050997;28;20083;-82
2021/12/16 04:07:52;;;;;;;79.20;34.72;;;8.70;99.90;;;;;;5049041;28;20475;-82
2021/12/16 04:10:45;;;;;;;75.95;34.00;;;8.70;99.90;;;;;;5050735;28;20105;-83
2021/12/16 04:13:16;;;;;;;71.55;32.45;;;8.70;99.90;;;;;;5050240;28;20028;-82
2021/12/16 04:15:46;;;;;;;70.35;31.85;;;8.70;99.90;;;;;;5050461;28;20041;-82
2021/12/16 04:18:13;;;;;;;84.40;35.13;;;8.70;99.90;;;;;;5047689;28;20040;-82
2021/12/16 04:20:42;;;;;;;68.40;30.30;;;8.70;99.90;;;;;;5066449;28;20064;-83
2021/12/16 04:23:10;;;;;;;77.53;31.17;;;8.70;99.90;;;;;;5062416;28;20029;-83
2021/12/16 04:25:39;;;;;;;72.47;30.25;;;8.60;99.90;;;;;;5029830;28;20067;-83
2021/12/16 04:28:13;;;;;;;62.58;27.10;;;8.70;99.90;;;;;;5051321;28;20489;-83
2021/12/16 04:30:41;;;;;;;67.13;29.70;;;8.60;99.90;;;;;;5066065;28;20079;-82
2021/12/16 04:33:07;;;;;;;75.55;31.98;;;8.60;99.90;;;;;;5062340;28;20033;-82
2021/12/16 04:35:35;;;;;;;71.07;33.75;;;8.60;99.90;;;;;;5046079;28;20056;-82
2021/12/16 04:38:01;;;;;;;74.13;34.10;;;8.60;99.90;;;;;;5033781;28;20024;-83
2021/12/16 04:40:29;;;;;;;79.25;34.08;;;8.60;99.90;;;;;;5049540;28;20025;-82
2021/12/16 04:43:01;;;;;;;72.72;30.52;;;8.60;99.90;;;;;;5049595;28;20036;-83
2021/12/16 04:45:36;;;;;;;73.75;31.85;;;8.60;99.90;;;;;;5067569;28;20044;-83
2021/12/16 04:48:05;;;;;;;70.38;29.27;;;8.60;99.90;;;;;;5048966;28;20033;-83
2021/12/16 04:50:35;;;;;;;68.53;27.75;;;8.60;99.90;;;;;;5049932;28;20029;-82
2021/12/16 04:53:01;;;;;;;63.95;26.92;;;8.60;99.90;;;;;;5065040;28;20036;-82
2021/12/16 04:55:32;;;;;;;60.90;24.65;;;8.50;99.90;;;;;;5049814;28;20057;-83
2021/12/16 04:57:58;;;;;;;63.42;28.45;;;8.60;99.90;;;;;;5045400;28;20025;-83
2021/12/16 05:00:25;;;;;;;55.20;25.25;;;8.50;99.90;;;;;;5045743;28;20375;-83
2021/12/16 05:03:04;;;;;;;62.88;28.42;;;8.60;99.90;;;;;;5041339;28;20033;-82
2021/12/16 05:05:38;;;;;;;73.82;29.65;;;8.50;99.90;;;;;;5049080;28;20040;-83
2021/12/16 05:08:05;;;;;;;62.38;27.30;;;8.50;99.90;;;;;;5061425;28;20025;-82
2021/12/16 05:10:38;;;;;;;69.45;27.33;;;8.50;99.90;;;;;;5029538;28;20613;-83
2021/12/16 05:13:10;;;;;;;76.35;30.23;;;8.50;99.90;;;;;;5044900;28;20036;-82
2021/12/16 05:15:38;;;;;;;66.63;28.02;;;8.50;99.90;;;;;;5065424;28;20033;-83
2021/12/16 05:18:10;;;;;;;70.47;27.70;;;8.50;99.90;;;;;;5030828;28;20053;-82
2021/12/16 05:20:43;;;;;;;71.22;27.85;;;8.50;99.90;;;;;;5044676;28;20025;-81
2021/12/16 05:29:00;;;;;;;66.97;27.55;;;8.40;99.90;;;;;;5060931;28;20021;-82
2021/12/16 05:31:28;;;;;;;65.43;26.65;;;8.40;99.90;;;;;;5063487;28;20049;-81
2021/12/16 05:33:57;;;;;;;66.35;26.73;;;8.40;99.90;;;;;;5047188;28;20115;-82
2021/12/16 05:36:22;;;;;;;67.10;28.90;;;8.40;99.90;;;;;;5065100;28;20048;-82
2021/12/16 05:38:49;;;;;;;62.67;28.60;;;8.40;99.90;;;;;;5062775;28;20021;-82
2021/12/16 05:41:17;;;;;;;61.35;25.17;;;8.40;99.90;;;;;;5062171;28;20080;-82
2021/12/16 05:43:45;;;;;;;53.97;22.02;;;8.40;99.90;;;;;;5061915;28;20405;-82
2021/12/16 05:46:12;;;;;;;66.18;25.20;;;8.40;99.90;;;;;;5080801;28;20033;-81
2021/12/16 05:48:42;;;;;;;72.28;27.77;;;8.40;99.90;;;;;;5062529;28;20061;-81
2021/12/16 05:51:21;;;;;;;69.32;28.33;;;8.40;99.90;;;;;;5061117;28;20083;-82
2021/12/16 05:53:50;;;;;;;60.75;25.30;;;8.40;99.90;;;;;;5045465;28;20087;-81
2021/12/16 05:56:35;;;;;;;64.13;26.85;;;8.40;99.90;;;;;;5066696;28;20045;-82
2021/12/16 05:59:02;;;;;;;66.13;25.48;;;8.40;99.90;;;;;;5063391;28;20017;-82
2021/12/16 06:01:31;;;;;;;64.63;25.38;;;8.40;99.90;;;;;;5063127;28;20029;-83
2021/12/16 06:03:58;;;;;;;69.87;27.33;;;8.40;99.90;;;;;;5047192;28;20037;-84
2021/12/16 06:06:26;;;;;;;59.15;23.42;;;8.30;99.90;;;;;;5058004;28;20028;-83
2021/12/16 06:08:52;;;;;;;70.82;27.85;;;8.40;99.90;;;;;;5039762;28;20035;-83
2021/12/16 06:11:22;;;;;;;69.75;28.35;;;8.30;99.90;;;;;;5044641;28;20088;-82
2021/12/16 06:14:09;;;;;;;62.70;22.63;;;8.30;99.90;;;;;;5047383;28;20171;-82
2021/12/16 06:27:37;;;;;;;66.78;25.40;;;8.20;99.90;;;;;;5061197;28;20029;-82
2021/12/16 06:30:09;;;;;;;64.03;22.67;;;8.30;99.90;;;;;;5060152;28;20064;-82
2021/12/16 06:32:35;;;;;;;59.25;21.65;;;8.30;99.90;;;;;;5063325;28;20107;-82
2021/12/16 06:35:02;;;;;;;56.45;19.67;;;8.20;99.90;;;;;;5060241;28;20052;-83
2021/12/16 06:37:28;;;;;;;67.70;21.80;;;8.20;99.90;;;;;;5060884;28;20412;-82
2021/12/16 06:39:53;;;;;;;61.78;20.15;;;8.20;99.90;;;;;;5046743;28;20033;-83
2021/12/16 06:42:27;;;;;;;59.08;20.30;;;8.20;99.90;;;;;;5059091;28;20021;-83
2021/12/16 06:45:05;;;;;;;64.45;22.33;;;8.20;99.90;;;;;;5063214;28;20120;-83
2021/12/16 06:47:41;;;;;;;55.28;20.23;;;8.20;99.90;;;;;;5060352;28;20040;-82
2021/12/16 06:50:08;;;;;;;53.15;20.88;;;8.10;99.90;;;;;;5057895;28;20033;-84
2021/12/16 06:52:40;;;;;;;69.00;23.33;;;8.10;99.90;;;;;;5062871;28;20034;-81
2021/12/16 06:55:11;;;;;;;52.83;19.45;;;8.10;99.90;;;;;;5063044;28;20045;-82
2021/12/16 06:57:44;;;;;;;;;;;8.10;99.90;;;;;;5064657;28;20033;-82
2021/12/16 07:00:27;;;;;;;57.58;20.48;;;8.10;99.90;;;;;;5046928;28;19908;-82
2021/12/16 07:02:58;;;;;;;58.67;21.67;;;8.10;99.90;;;;;;5064174;28;20043;-83
2021/12/16 07:05:33;;;;;;;62.17;21.13;;;8.10;99.90;;;;;;5047251;28;20033;-83
2021/12/16 07:08:01;;;;;;;47.45;18.17;;;8.10;99.90;;;;;;5064233;28;20500;-82
2021/12/16 07:10:29;;;;;;;59.40;20.42;;;8.10;99.90;;;;;;5047024;28;20040;-83
2021/12/16 07:12:59;;;;;;;51.88;18.00;;;8.10;99.90;;;;;;5048349;28;20028;-83
2021/12/16 07:15:28;;;;;;;48.92;16.40;;;8.10;99.90;;;;;;5047130;28;20396;-83
2021/12/16 07:17:55;;;;;;;54.30;19.55;;;8.10;99.90;;;;;;5047214;28;20026;-83
2021/12/16 07:20:25;;;;;;;56.72;20.45;;;8.00;99.90;;;;;;5047130;28;20036;-83
2021/12/16 07:22:52;;;;;;;50.22;17.67;;;8.00;99.90;;;;;;5047264;28;20029;-82
2021/12/16 07:25:17;;;;;;;62.95;18.88;;;8.00;99.90;;;;;;5047014;28;20036;-82
2021/12/16 07:27:44;;;;;;;46.80;16.48;;;8.00;99.90;;;;;;5034651;28;20045;-81
2021/12/16 07:30:13;;;;;;;49.28;15.93;;;8.00;99.90;;;;;;5062869;28;20436;-81
2021/12/16 07:32:39;;;;;;;51.47;17.25;;;8.00;99.90;;;;;;5064933;28;20037;-81
2021/12/16 07:35:08;;;;;;;53.25;18.35;;;8.00;99.90;;;;;;5056020;28;20080;-81
2021/12/16 07:37:34;;;;;;;51.03;16.60;;;8.00;99.90;;;;;;5066176;28;20481;-81
2021/12/16 07:40:06;;;;;;;56.60;16.48;;;8.00;99.90;;;;;;5063376;28;20033;-82
2021/12/16 07:42:42;;;;;;;49.78;15.25;;;8.00;99.90;;;;;;5059871;28;20021;-81
2021/12/16 07:45:09;;;;;;;43.22;15.75;;;8.00;99.90;;;;;;5049263;28;20044;-82
2021/12/16 07:47:34;;;;;;;46.28;15.88;;;7.90;99.90;;;;;;5082929;28;20041;-81
2021/12/16 07:50:00;;;;;;;48.17;16.73;;;8.00;99.90;;;;;;5062669;28;20076;-81
2021/12/16 07:52:26;;;;;;;41.17;16.38;;;8.00;99.90;;;;;;5062769;28;20053;-81
2021/12/16 07:54:51;;;;;;;39.88;13.05;;;8.00;99.90;;;;;;5064018;28;20017;-82
2021/12/16 07:57:17;;;;;;;45.28;14.93;;;7.90;99.90;;;;;;5064479;28;20033;-81
2021/12/16 07:59:43;;;;;;;37.78;13.30;;;8.00;99.90;;;;;;5063902;28;20041;-81
2021/12/16 08:02:11;;;;;;;42.13;15.25;;;8.00;99.90;;;;;;5065886;28;20044;-83
2021/12/16 08:04:41;;;;;;;52.75;14.95;;;8.00;99.90;;;;;;5062791;28;20025;-87
2021/12/16 08:07:08;;;;;;;38.80;13.18;;;8.00;99.90;;;;;;5064334;28;20048;-83
2021/12/16 08:09:37;;;;;;;38.80;12.80;;;8.00;99.90;;;;;;5065832;28;20044;-84
2021/12/16 08:12:05;;;;;;;42.63;15.00;;;8.00;99.90;;;;;;5065816;28;20029;-83
2021/12/16 08:14:31;;;;;;;52.83;15.18;;;8.00;99.90;;;;;;5064768;28;20017;-83
2021/12/16 08:16:57;;;;;;;37.90;14.27;;;8.00;99.90;;;;;;5060977;28;20041;-84
2021/12/16 08:19:22;;;;;;;43.42;14.20;;;8.00;99.90;;;;;;5058750;28;20114;-85
2021/12/16 08:21:48;;;;;;;38.03;14.43;;;8.00;99.90;;;;;;5065316;28;20025;-91
2021/12/16 08:24:16;;;;;;;35.88;13.40;;;8.00;99.90;;;;;;5064606;28;20029;-86
2021/12/16 08:26:46;;;;;;;37.05;13.13;;;8.00;99.90;;;;;;5053798;28;20065;-88
2021/12/16 08:29:12;;;;;;;47.13;14.45;;;8.00;99.90;;;;;;5066184;28;20044;-89
2021/12/16 08:31:38;;;;;;;42.58;13.68;;;8.00;99.90;;;;;;5064585;28;20179;-83
2021/12/16 08:34:05;;;;;;;41.90;14.77;;;8.00;99.90;;;;;;5064332;28;20045;-85
2021/12/16 08:36:31;;;;;;;39.97;13.80;;;8.10;99.90;;;;;;5056767;28;20060;-85
2021/12/16 08:38:57;;;;;;;41.78;13.38;;;8.10;99.90;;;;;;5056266;28;20036;-87
2021/12/16 08:41:28;;;;;;;37.85;12.68;;;8.10;99.90;;;;;;5064372;28;20033;-82
2021/12/16 08:43:53;;;;;;;50.13;13.57;;;8.10;99.90;;;;;;5062318;28;20044;-86
2021/12/16 08:46:23;;;;;;;39.47;13.57;;;8.10;99.90;;;;;;5065764;28;20021;-86
2021/12/16 08:48:49;;;;;;;37.13;12.88;;;8.10;99.90;;;;;;5064715;28;20083;-87
2021/12/16 08:51:18;;;;;;;38.38;12.73;;;8.10;99.90;;;;;;5064178;28;20041;-86
2021/12/16 08:53:44;;;;;;;42.35;12.80;;;8.10;99.90;;;;;;5063539;28;20029;-88
2021/12/16 08:56:12;;;;;;;34.05;12.25;;;8.10;99.90;;;;;;5064307;28;20123;-88
2021/12/16 08:58:38;;;;;;;49.83;13.20;;;8.10;99.90;;;;;;5060381;28;20026;-84
2021/12/16 09:01:12;;;;;;;39.88;13.65;;;8.10;99.90;;;;;;5062401;28;20043;-87
2021/12/16 09:03:37;;;;;;;41.95;13.65;;;8.10;99.90;;;;;;5063374;28;20209;-92
2021/12/16 09:06:03;;;;;;;37.55;13.15;;;8.10;99.90;;;;;;5065348;28;20032;-83
2021/12/16 09:08:29;;;;;;;36.45;13.02;;;8.20;99.90;;;;;;5076781;28;20025;-88
2021/12/16 09:10:56;;;;;;;46.00;14.80;;;8.20;99.90;;;;;;5063643;28;20043;-85
2021/12/16 09:13:21;;;;;;;52.38;19.30;;;8.10;99.90;;;;;;5061669;28;20087;-86
2021/12/16 09:15:54;;;;;;;42.90;15.48;;;8.00;99.90;;;;;;5063937;28;20041;-88
2021/12/16 09:18:26;;;;;;;49.35;14.50;;;8.10;99.90;;;;;;5047559;28;20032;-87
2021/12/16 09:20:55;;;;;;;44.85;16.25;;;8.10;99.90;;;;;;5063880;28;20025;-89
2021/12/16 09:23:21;;;;;;;51.38;17.48;;;8.00;99.90;;;;;;5062810;28;20086;-91
2021/12/16 09:25:49;;;;;;;49.22;17.38;;;8.10;99.90;;;;;;5063784;28;20029;-83
2021/12/16 09:31:12;;;;;;;43.92;13.85;;;8.00;99.90;;;;;;4998505;28;20053;-80
2021/12/16 09:33:44;;;;;;;41.08;13.70;;;8.10;99.90;;;;;;4983207;28;20097;-82
2021/12/16 09:36:14;;;;;;;43.97;13.77;;;8.20;99.90;;;;;;4971669;28;20072;-82
2021/12/16 09:38:41;;;;;;;39.38;12.98;;;8.20;99.90;;;;;;4971184;28;20037;-81
2021/12/16 09:41:08;;;;;;;41.30;12.98;;;8.30;99.90;;;;;;4983481;28;20057;-80
2021/12/16 09:43:37;;;;;;;46.33;15.05;;;8.20;99.90;;;;;;4968351;28;20110;-81
2021/12/16 09:46:06;;;;;;;54.67;14.80;;;8.20;99.90;;;;;;4980983;28;20555;-82
2021/12/16 09:48:32;;;;;;;43.95;15.88;;;8.10;99.90;;;;;;4994339;28;20153;-82
2021/12/16 09:51:00;;;;;;;43.22;15.48;;;8.10;99.90;;;;;;4983407;28;20034;-81
2021/12/16 09:53:26;;;;;;;42.35;14.20;;;8.10;99.90;;;;;;4996756;28;20046;-81
2021/12/16 09:55:57;;;;;;;45.85;15.15;;;8.10;99.90;;;;;;4985344;28;20050;-81
2021/12/16 09:58:23;;;;;;;40.45;13.48;;;8.10;99.90;;;;;;4985405;28;20046;-81
2021/12/16 10:00:48;;;;;;;42.40;13.77;;;8.20;99.90;;;;;;4972500;28;20514;-81
2021/12/16 10:03:14;;;;;;;38.78;13.82;;;8.20;99.90;;;;;;4982764;28;20030;-81
2021/12/16 10:05:40;;;;;;;46.33;15.07;;;8.30;99.90;;;;;;4969077;28;20045;-81
2021/12/16 10:08:08;;;;;;;44.22;13.77;;;8.20;99.90;;;;;;5013670;28;20424;-81
2021/12/16 10:10:34;;;;;;;42.72;14.88;;;8.30;99.90;;;;;;5062808;28;20037;-81
2021/12/16 10:13:02;;;;;;;48.45;15.60;;;8.30;99.90;;;;;;5064792;28;20032;-82
2021/12/16 10:17:58;;;;;;;41.50;13.25;;;8.30;99.90;;;;;;5063700;28;20408;-82
2021/12/16 10:20:32;;;;;;;29.25;10.75;;;8.40;99.90;;;;;;5063697;28;20037;-81
2021/12/16 10:23:11;;;;;;;34.65;12.48;;;8.30;99.90;;;;;;5063728;28;20057;-82
2021/12/16 10:25:44;;;;;;;45.03;14.73;;;8.20;99.90;;;;;;5063847;28;20029;-82
2021/12/16 10:28:41;;;;;;;42.47;14.55;;;8.30;99.90;;;;;;5063636;28;20024;-81
2021/12/16 10:31:17;;;;;;;36.50;12.90;;;8.20;99.90;;;;;;4970112;28;20061;-82
2021/12/16 10:33:57;;;;;;;36.70;12.75;;;8.30;99.90;;;;;;5003088;28;20049;-82
2021/12/16 10:36:41;;;;;;;43.72;13.52;;;8.40;99.90;;;;;;5003178;28;20118;-81
2021/12/16 10:39:17;;;;;;;39.75;13.07;;;8.40;99.90;;;;;;4999703;28;20122;-81
2021/12/16 10:42:04;;;;;;;37.75;12.50;;;8.50;99.90;;;;;;4967369;28;20074;-82
2021/12/16 10:44:33;;;;;;;40.90;13.27;;;8.30;99.90;;;;;;4967377;28;20042;-82
2021/12/16 10:47:00;;;;;;;37.08;13.10;;;8.30;99.90;;;;;;4967185;28;20058;-81
2021/12/16 10:49:49;;;;;;;35.65;12.80;;;8.40;99.90;;;;;;4983215;28;20070;-82
2021/12/16 10:52:27;;;;;;;49.45;14.52;;;8.40;99.90;;;;;;4983568;28;20046;-82
2021/12/16 10:54:54;;;;;;;29.60;11.05;;;8.30;99.90;;;;;;4967088;28;20054;-81
2021/12/16 10:57:25;;;;;;;41.53;13.80;;;8.20;99.90;;;;;;4957452;28;20039;-82
2021/12/16 10:59:58;;;;;;;39.85;13.23;;;8.30;99.90;;;;;;4982101;28;20500;-82
2021/12/16 11:02:30;;;;;;;37.70;13.07;;;8.40;99.90;;;;;;4983600;28;20054;-81
2021/12/16 11:05:06;;;;;;;31.70;11.05;;;8.50;99.90;;;;;;4985004;28;20026;-81
2021/12/16 11:07:37;;;;;;;40.20;14.95;;;8.50;99.90;;;;;;4991896;28;20064;-82
2021/12/16 11:10:11;;;;;;;40.15;14.93;;;8.40;99.90;;;;;;4993451;28;20030;-82
2021/12/16 11:12:44;;;;;;;34.90;12.60;;;8.50;99.90;;;;;;4993894;28;20525;-82
2021/12/16 11:15:29;;;;;;;33.72;12.55;;;8.40;99.90;;;;;;4993330;28;20040;-82
2021/12/16 11:18:03;;;;;;;30.45;11.85;;;8.50;99.90;;;;;;4993717;28;20049;-81
2021/12/16 11:20:34;;;;;;;27.05;9.80;;;8.40;99.90;;;;;;4993219;28;20038;-81
2021/12/16 11:23:08;;;;;;;36.25;13.02;;;8.50;99.90;;;;;;5043264;28;20049;-82
2021/12/16 11:25:38;;;;;;;31.35;12.15;;;8.50;99.90;;;;;;5025776;28;20041;-81
2021/12/16 11:28:06;;;;;;;;;;;8.50;99.90;;;;;;5015020;28;20033;-82
2021/12/16 11:30:37;;;;;;;32.70;12.48;;;8.40;99.90;;;;;;5081170;28;19927;-82
2021/12/16 11:33:22;;;;;;;32.80;12.88;;;8.50;99.90;;;;;;5050058;28;20504;-82
2021/12/16 11:36:05;;;;;;;28.73;11.48;;;8.60;99.90;;;;;;5049800;28;20040;-81
2021/12/16 11:38:35;;;;;;;31.98;11.77;;;8.50;99.90;;;;;;5049910;28;20029;-81
2021/12/16 11:41:10;;;;;;;38.00;15.38;;;8.40;99.90;;;;;;5049758;28;20040;-82
2021/12/16 11:43:46;;;;;;;47.80;18.88;;;8.30;99.90;;;;;;5066647;28;20037;-81
2021/12/16 11:46:23;;;;;;;38.58;16.92;;;8.20;99.90;;;;;;5049873;28;20028;-82
2021/12/16 11:48:51;;;;;;;38.30;14.73;;;8.40;99.90;;;;;;5049553;28;20057;-87
2021/12/16 11:51:31;;;;;;;36.45;13.88;;;8.40;99.90;;;;;;5066281;28;20508;-81
2021/12/16 11:54:16;;;;;;;38.80;15.05;;;8.40;99.90;;;;;;5066366;28;20070;-81
2021/12/16 11:56:53;;;;;;;30.20;13.35;;;8.40;99.90;;;;;;5066407;28;20341;-83
2021/12/16 11:59:34;;;;;;;34.88;14.77;;;8.50;99.90;;;;;;5046929;28;20029;-85
2021/12/16 12:02:00;;;;;;;34.20;15.15;;;8.30;99.90;;;;;;5046637;28;20082;-82
2021/12/16 12:04:31;;;;;;;33.60;13.75;;;8.40;99.90;;;;;;5062443;28;20037;-82
2021/12/16 12:06:57;;;;;;;32.03;14.50;;;8.40;99.90;;;;;;5046036;28;20033;-82
2021/12/16 12:09:35;;;;;;;31.70;13.10;;;8.40;99.90;;;;;;5046047;28;20446;-81
2021/12/16 12:12:00;;;;;;;31.77;13.50;;;8.50;99.90;;;;;;5062477;28;20029;-83
2021/12/16 12:14:35;;;;;;;28.83;12.63;;;8.50;99.90;;;;;;5046681;28;20033;-82
2021/12/16 12:17:08;;;;;;;33.15;13.85;;;8.50;99.90;;;;;;5049327;28;20049;-82
2021/12/16 12:19:44;;;;;;;36.20;15.07;;;8.40;99.90;;;;;;5048702;28;20033;-82
2021/12/16 12:22:10;;;;;;;39.22;16.05;;;8.30;99.90;;;;;;5049034;28;20048;-82
2021/12/16 12:24:40;;;;;;;33.72;14.63;;;8.20;99.90;;;;;;5048835;28;20029;-82
2021/12/16 12:27:09;;;;;;;33.83;14.02;;;8.20;99.90;;;;;;5048979;28;20474;-81
2021/12/16 12:29:36;;;;;;;36.97;13.52;;;8.20;99.90;;;;;;5047599;28;20079;-81
2021/12/16 12:32:09;;;;;;;30.70;13.02;;;8.20;99.90;;;;;;5046591;28;20025;-82
2021/12/16 12:34:38;;;;;;;29.63;12.85;;;8.30;99.90;;;;;;5063137;28;20025;-81
2021/12/16 12:37:09;;;;;;;29.58;13.90;;;8.30;99.90;;;;;;5066302;28;20051;-81
2021/12/16 12:39:39;;;;;;;40.60;17.65;;;8.20;99.90;;;;;;5064045;28;20036;-81
2021/12/16 12:42:06;;;;;;;32.25;14.35;;;8.10;99.90;;;;;;5058423;28;20037;-82
2021/12/16 12:44:33;;;;;;;32.47;14.63;;;8.30;99.90;;;;;;5061545;28;20025;-81
2021/12/16 12:47:05;;;;;;;32.03;13.38;;;8.40;99.90;;;;;;5064371;28;20036;-81
2021/12/16 12:49:31;;;;;;;29.90;12.85;;;8.30;99.90;;;;;;5063894;28;20178;-80
2021/12/16 12:52:23;;;;;;;33.75;13.85;;;8.40;99.90;;;;;;5038143;28;20060;-83
2021/12/16 12:55:04;;;;;;;32.28;13.82;;;8.30;99.90;;;;;;5041426;28;20041;-82
2021/12/16 12:57:33;;;;;;;43.85;17.52;;;8.30;99.90;;;;;;5045159;28;20044;-81
2021/12/16 13:00:00;;;;;;;33.75;14.63;;;8.20;99.90;;;;;;5062970;28;20033;-83
2021/12/16 13:02:29;;;;;;;30.83;14.50;;;8.30;99.90;;;;;;5046940;28;20104;-82
2021/12/16 13:05:07;;;;;;;37.13;15.52;;;8.30;99.90;;;;;;5062603;28;20043;-83
2021/12/16 13:07:43;;;;;;;35.33;14.70;;;8.30;99.90;;;;;;5060980;28;20037;-82
2021/12/16 13:10:11;;;;;;;29.73;13.05;;;8.30;99.90;;;;;;5059327;28;20064;-83
2021/12/16 13:13:01;;;;;;;35.60;14.23;;;8.40;99.90;;;;;;5049577;28;20121;-82
2021/12/16 13:15:48;;;;;;;25.50;11.63;;;8.30;99.90;;;;;;5062575;28;20036;-81
2021/12/16 13:26:36;;;;;;;33.10;13.50;;;8.30;99.90;;;;;;5063177;28;20036;-83
2021/12/16 13:32:13;;;;;;;32.88;13.75;;;8.30;99.90;;;;;;5037992;28;20060;-82
2021/12/16 13:35:01;;;;;;;29.95;10.48;;;8.30;99.90;;;;;;5059781;28;20041;-82
2021/12/16 13:37:37;;;;;;;30.02;12.48;;;8.30;99.90;;;;;;5063163;28;20053;-82
2021/12/16 13:40:18;;;;;;;29.92;13.18;;;8.20;99.90;;;;;;5059844;28;20052;-82
2021/12/16 13:42:48;;;;;;;24.08;10.63;;;8.20;99.90;;;;;;5061879;28;20037;-81
2021/12/16 13:45:47;;;;;;;29.23;13.02;;;8.30;99.90;;;;;;5063331;28;20036;-81
2021/12/16 14:02:28;;;;;;;32.05;13.93;;;8.40;99.90;;;;;;5063934;28;20033;-82
2021/12/16 14:05:17;;;;;;;36.22;13.48;;;8.50;99.90;;;;;;5063018;28;20500;-82
2021/12/16 14:07:58;;;;;;;30.93;13.27;;;8.40;99.90;;;;;;5060926;28;20096;-82
2021/12/16 14:10:43;;;;;;;27.55;12.07;;;8.40;99.90;;;;;;5047626;28;20033;-82
2021/12/16 14:23:02;;;;;;;35.28;14.98;;;8.40;99.90;;;;;;5059413;28;20029;-81
2021/12/16 14:36:40;;;;;;;34.30;15.20;;;8.40;99.90;;;;;;5055899;28;20051;-82
2021/12/16 14:39:28;;;;;;;31.02;13.35;;;8.40;99.90;;;;;;5082738;28;20040;-82
2021/12/16 14:42:20;;;;;;;39.05;15.43;;;8.30;99.90;;;;;;5086536;28;20036;-82
2021/12/16 14:47:55;;;;;;;35.33;14.38;;;8.30;99.90;;;;;;5070306;28;20025;-82
2021/12/16 14:50:35;;;;;;;35.15;13.82;;;8.30;99.90;;;;;;5070348;28;20033;-82
2021/12/16 14:53:13;;;;;;;42.90;15.85;;;8.30;99.90;;;;;;5069994;28;20393;-82
2021/12/16 14:55:39;;;;;;;35.65;14.65;;;8.20;99.90;;;;;;5070035;28;20055;-83
2021/12/16 14:58:05;;;;;;;31.85;13.45;;;8.20;99.90;;;;;;5067851;28;20116;-81
2021/12/16 15:00:45;;;;;;;24.20;11.18;;;8.20;99.90;;;;;;5087405;28;20043;-82
2021/12/16 15:03:17;;;;;;;;;;;8.20;99.90;;;;;;5071161;28;20040;-83
2021/12/16 15:05:47;;;;;;;28.23;13.23;;;8.20;99.90;;;;;;5070204;28;20007;-83
2021/12/16 15:08:15;;;;;;;30.00;12.88;;;8.20;99.90;;;;;;5070396;28;20358;-82
2021/12/16 15:10:42;;;;;;;34.95;15.93;;;8.20;99.90;;;;;;5070660;28;20028;-83
2021/12/16 15:13:20;;;;;;;37.22;16.58;;;8.10;99.90;;;;;;5056982;28;20036;-82
2021/12/16 15:35:51;;;;;;;34.05;14.48;;;8.10;99.90;;;;;;5069366;28;20032;-82
2021/12/16 15:43:06;;;;;;;32.05;14.23;;;8.00;99.90;;;;;;5068774;28;20100;-82
2021/12/16 15:45:46;;;;;;;;;;;8.00;99.90;;;;;;5067065;28;20096;-82
2021/12/16 15:48:14;;;;;;;;;;;8.00;99.90;;;;;;5067831;28;20147;-82
2021/12/16 15:50:51;;;;;;;30.45;13.48;;;8.00;99.90;;;;;;5047693;28;19916;-82
2021/12/16 15:53:31;;;;;;;37.72;16.10;;;8.00;99.90;;;;;;5065907;28;20052;-83
2021/12/16 15:56:05;;;;;;;34.22;14.75;;;7.90;99.90;;;;;;5065975;28;20067;-82
2021/12/16 15:58:35;;;;;;;37.35;14.75;;;8.00;99.90;;;;;;5061600;28;20034;-83
2021/12/16 16:01:08;;;;;;;35.47;17.02;;;7.90;99.90;;;;;;5082822;28;20036;-83
2021/12/16 16:03:34;;;;;;;35.15;15.35;;;7.90;99.90;;;;;;5064052;28;20094;-83
2021/12/16 16:06:04;;;;;;;33.05;13.85;;;7.90;99.90;;;;;;5066118;28;20033;-82
2021/12/16 16:08:33;;;;;;;32.50;13.70;;;7.90;99.90;;;;;;5061968;28;20022;-83
2021/12/16 16:11:04;;;;;;;35.90;14.32;;;7.90;99.90;;;;;;5062135;28;20037;-82
2021/12/16 16:13:40;;;;;;;30.75;13.25;;;7.90;99.90;;;;;;5054948;28;20025;-82
2021/12/16 16:16:07;;;;;;;34.08;14.38;;;8.00;99.90;;;;;;5080220;28;20047;-82
2021/12/16 16:18:40;;;;;;;37.60;14.82;;;7.90;99.90;;;;;;5058423;28;20025;-83
2021/12/16 16:21:11;;;;;;;33.22;15.00;;;7.90;99.90;;;;;;5062436;28;20119;-82
2021/12/16 16:23:52;;;;;;;30.05;14.27;;;7.90;99.90;;;;;;5065666;28;20100;-83
2021/12/16 16:26:19;;;;;;;32.70;13.80;;;7.90;99.90;;;;;;5065651;28;20040;-84
2021/12/16 16:28:48;;;;;;;36.08;14.32;;;7.90;99.90;;;;;;5063839;28;20036;-83